sensor_id;sensor_type;location;lat;lon;timestamp;temperature;humidity
14877;DHT22;69691;48.172;17.070;2024-03-08T00:00:08;7.80;86.30
14877;DHT22;69691;48.172;17.070;2024-03-08T00:02:42;7.80;86.40
14877;DHT22;69691;48.172;17.070;2024-03-08T00:05:08;7.80;86.60
14877;DHT22;69691;48.172;17.070;2024-03-08T00:07:35;7.70;86.50
14877;DHT22;69691;48.172;17.070;2024-03-08T00:10:06;7.60;86.90
14877;DHT22;69691;48.172;17.070;2024-03-08T00:12:40;7.60;87.10
14877;DHT22;69691;48.172;17.070;2024-03-08T00:15:14;7.60;87.40
14877;DHT22;69691;48.172;17.070;2024-03-08T00:17:41;7.60;87.50
14877;DHT22;69691;48.172;17.070;2024-03-08T00:20:08;7.60;87.40
14877;DHT22;69691;48.172;17.070;2024-03-08T00:22:37;7.60;87.40
14877;DHT22;69691;48.172;17.070;2024-03-08T00:25:05;7.60;87.30
14877;DHT22;69691;48.172;17.070;2024-03-08T00:27:32;7.60;87.30
14877;DHT22;69691;48.172;17.070;2024-03-08T00:29:59;7.50;87.30
14877;DHT22;69691;48.172;17.070;2024-03-08T00:32:26;7.50;87.40
14877;DHT22;69691;48.172;17.070;2024-03-08T00:34:53;7.50;87.90
14877;DHT22;69691;48.172;17.070;2024-03-08T00:37:22;7.40;88.00
14877;DHT22;69691;48.172;17.070;2024-03-08T00:39:51;7.40;88.30
14877;DHT22;69691;48.172;17.070;2024-03-08T00:42:18;7.40;88.30
14877;DHT22;69691;48.172;17.070;2024-03-08T00:44:45;7.40;88.30
14877;DHT22;69691;48.172;17.070;2024-03-08T00:47:11;7.40;88.50
14877;DHT22;69691;48.172;17.070;2024-03-08T00:49:37;7.40;88.40
14877;DHT22;69691;48.172;17.070;2024-03-08T00:52:04;7.40;88.40
14877;DHT22;69691;48.172;17.070;2024-03-08T00:54:34;7.40;88.50
14877;DHT22;69691;48.172;17.070;2024-03-08T00:57:03;7.40;88.60
14877;DHT22;69691;48.172;17.070;2024-03-08T00:59:30;7.40;88.80
14877;DHT22;69691;48.172;17.070;2024-03-08T01:01:59;7.40;88.90
14877;DHT22;69691;48.172;17.070;2024-03-08T01:04:28;7.40;89.00
14877;DHT22;69691;48.172;17.070;2024-03-08T01:06:57;7.40;89.10
14877;DHT22;69691;48.172;17.070;2024-03-08T01:09:24;7.50;89.50
14877;DHT22;69691;48.172;17.070;2024-03-08T01:11:50;7.50;89.40
14877;DHT22;69691;48.172;17.070;2024-03-08T01:14:16;7.40;89.50
14877;DHT22;69691;48.172;17.070;2024-03-08T01:16:42;7.40;89.60
14877;DHT22;69691;48.172;17.070;2024-03-08T01:19:08;7.40;89.80
14877;DHT22;69691;48.172;17.070;2024-03-08T01:21:34;7.40;89.70
14877;DHT22;69691;48.172;17.070;2024-03-08T01:24:00;7.40;89.70
14877;DHT22;69691;48.172;17.070;2024-03-08T01:26:26;7.40;89.80
14877;DHT22;69691;48.172;17.070;2024-03-08T01:28:51;7.40;89.70
14877;DHT22;69691;48.172;17.070;2024-03-08T01:31:17;7.30;89.80
14877;DHT22;69691;48.172;17.070;2024-03-08T01:33:43;7.30;90.00
14877;DHT22;69691;48.172;17.070;2024-03-08T01:36:09;7.30;90.10
14877;DHT22;69691;48.172;17.070;2024-03-08T01:38:35;7.30;90.20
14877;DHT22;69691;48.172;17.070;2024-03-08T01:41:02;7.30;90.30
14877;DHT22;69691;48.172;17.070;2024-03-08T01:43:29;7.30;90.60
14877;DHT22;69691;48.172;17.070;2024-03-08T01:45:58;7.30;90.30
14877;DHT22;69691;48.172;17.070;2024-03-08T01:48:30;7.30;90.40
14877;DHT22;69691;48.172;17.070;2024-03-08T01:50:57;7.20;90.50
14877;DHT22;69691;48.172;17.070;2024-03-08T01:53:27;7.20;90.60
14877;DHT22;69691;48.172;17.070;2024-03-08T01:55:56;7.20;90.60
14877;DHT22;69691;48.172;17.070;2024-03-08T01:58:23;7.20;90.70
14877;DHT22;69691;48.172;17.070;2024-03-08T02:00:50;7.20;90.70
14877;DHT22;69691;48.172;17.070;2024-03-08T02:03:18;7.20;90.80
14877;DHT22;69691;48.172;17.070;2024-03-08T02:05:44;7.10;90.80
14877;DHT22;69691;48.172;17.070;2024-03-08T02:08:10;7.10;90.80
14877;DHT22;69691;48.172;17.070;2024-03-08T02:10:40;7.20;90.80
14877;DHT22;69691;48.172;17.070;2024-03-08T02:13:07;7.10;90.70
14877;DHT22;69691;48.172;17.070;2024-03-08T02:15:56;7.20;90.80
14877;DHT22;69691;48.172;17.070;2024-03-08T02:18:24;7.20;90.70
14877;DHT22;69691;48.172;17.070;2024-03-08T02:20:58;7.20;90.70
14877;DHT22;69691;48.172;17.070;2024-03-08T02:23:25;7.20;90.90
14877;DHT22;69691;48.172;17.070;2024-03-08T02:25:53;7.10;90.90
14877;DHT22;69691;48.172;17.070;2024-03-08T02:28:20;7.10;91.00
14877;DHT22;69691;48.172;17.070;2024-03-08T02:30:46;7.10;91.10
14877;DHT22;69691;48.172;17.070;2024-03-08T02:33:14;7.00;91.20
14877;DHT22;69691;48.172;17.070;2024-03-08T02:35:47;7.00;91.20
14877;DHT22;69691;48.172;17.070;2024-03-08T02:38:14;7.10;91.30
14877;DHT22;69691;48.172;17.070;2024-03-08T02:40:42;7.10;91.30
14877;DHT22;69691;48.172;17.070;2024-03-08T02:43:09;7.10;91.30
14877;DHT22;69691;48.172;17.070;2024-03-08T02:45:36;7.10;91.30
14877;DHT22;69691;48.172;17.070;2024-03-08T02:48:02;7.20;91.30
14877;DHT22;69691;48.172;17.070;2024-03-08T02:50:28;7.20;91.30
14877;DHT22;69691;48.172;17.070;2024-03-08T02:52:54;7.10;91.20
14877;DHT22;69691;48.172;17.070;2024-03-08T02:55:20;7.10;91.40
14877;DHT22;69691;48.172;17.070;2024-03-08T02:57:46;7.00;91.60
14877;DHT22;69691;48.172;17.070;2024-03-08T03:00:15;7.10;91.70
14877;DHT22;69691;48.172;17.070;2024-03-08T03:02:41;7.00;91.60
14877;DHT22;69691;48.172;17.070;2024-03-08T03:05:08;7.00;91.60
14877;DHT22;69691;48.172;17.070;2024-03-08T03:07:35;7.00;91.60
14877;DHT22;69691;48.172;17.070;2024-03-08T03:10:01;7.00;91.60
14877;DHT22;69691;48.172;17.070;2024-03-08T03:12:28;7.10;91.50
14877;DHT22;69691;48.172;17.070;2024-03-08T03:14:54;7.10;91.40
14877;DHT22;69691;48.172;17.070;2024-03-08T03:17:25;7.10;91.40
14877;DHT22;69691;48.172;17.070;2024-03-08T03:19:52;7.10;91.50
14877;DHT22;69691;48.172;17.070;2024-03-08T03:22:19;7.10;91.60
14877;DHT22;69691;48.172;17.070;2024-03-08T03:24:45;7.10;91.60
14877;DHT22;69691;48.172;17.070;2024-03-08T03:27:17;7.10;91.60
14877;DHT22;69691;48.172;17.070;2024-03-08T03:29:43;7.10;91.60
14877;DHT22;69691;48.172;17.070;2024-03-08T03:32:13;7.10;91.70
14877;DHT22;69691;48.172;17.070;2024-03-08T03:34:40;7.10;91.80
14877;DHT22;69691;48.172;17.070;2024-03-08T03:37:06;7.00;91.80
14877;DHT22;69691;48.172;17.070;2024-03-08T03:39:34;7.00;91.80
14877;DHT22;69691;48.172;17.070;2024-03-08T03:42:00;7.10;91.80
14877;DHT22;69691;48.172;17.070;2024-03-08T03:44:28;7.10;91.80
14877;DHT22;69691;48.172;17.070;2024-03-08T03:46:54;7.10;91.80
14877;DHT22;69691;48.172;17.070;2024-03-08T03:49:20;7.10;91.60
14877;DHT22;69691;48.172;17.070;2024-03-08T03:51:46;7.10;91.60
14877;DHT22;69691;48.172;17.070;2024-03-08T03:54:12;7.10;91.70
14877;DHT22;69691;48.172;17.070;2024-03-08T03:56:38;7.10;91.70
14877;DHT22;69691;48.172;17.070;2024-03-08T03:59:06;7.10;91.80
14877;DHT22;69691;48.172;17.070;2024-03-08T04:01:33;7.10;91.90
14877;DHT22;69691;48.172;17.070;2024-03-08T04:03:59;7.10;92.00
14877;DHT22;69691;48.172;17.070;2024-03-08T04:06:25;7.10;92.00
14877;DHT22;69691;48.172;17.070;2024-03-08T04:08:51;7.20;92.00
14877;DHT22;69691;48.172;17.070;2024-03-08T04:11:17;7.20;91.90
14877;DHT22;69691;48.172;17.070;2024-03-08T04:13:43;7.20;91.90
14877;DHT22;69691;48.172;17.070;2024-03-08T04:16:09;7.20;91.90
14877;DHT22;69691;48.172;17.070;2024-03-08T04:18:37;7.20;92.00
14877;DHT22;69691;48.172;17.070;2024-03-08T04:21:06;7.20;91.90
14877;DHT22;69691;48.172;17.070;2024-03-08T04:23:35;7.20;91.90
14877;DHT22;69691;48.172;17.070;2024-03-08T04:26:02;7.20;91.90
14877;DHT22;69691;48.172;17.070;2024-03-08T04:28:30;7.10;92.00
14877;DHT22;69691;48.172;17.070;2024-03-08T04:30:57;7.10;92.10
14877;DHT22;69691;48.172;17.070;2024-03-08T04:33:23;7.10;92.10
14877;DHT22;69691;48.172;17.070;2024-03-08T04:35:49;7.10;92.10
14877;DHT22;69691;48.172;17.070;2024-03-08T04:38:15;7.20;92.10
14877;DHT22;69691;48.172;17.070;2024-03-08T04:40:41;7.20;92.10
14877;DHT22;69691;48.172;17.070;2024-03-08T04:43:07;7.20;92.00
14877;DHT22;69691;48.172;17.070;2024-03-08T04:45:34;7.30;92.00
14877;DHT22;69691;48.172;17.070;2024-03-08T04:48:00;7.30;91.90
14877;DHT22;69691;48.172;17.070;2024-03-08T04:50:26;7.30;92.00
14877;DHT22;69691;48.172;17.070;2024-03-08T04:52:55;7.30;92.00
14877;DHT22;69691;48.172;17.070;2024-03-08T04:55:21;7.30;92.10
14877;DHT22;69691;48.172;17.070;2024-03-08T04:57:47;7.20;92.00
14877;DHT22;69691;48.172;17.070;2024-03-08T05:00:14;7.20;92.10
14877;DHT22;69691;48.172;17.070;2024-03-08T05:02:41;7.20;92.20
14877;DHT22;69691;48.172;17.070;2024-03-08T05:05:10;7.20;92.20
14877;DHT22;69691;48.172;17.070;2024-03-08T05:07:39;7.20;92.30
14877;DHT22;69691;48.172;17.070;2024-03-08T05:10:06;7.20;92.30
14877;DHT22;69691;48.172;17.070;2024-03-08T05:12:35;7.30;92.30
14877;DHT22;69691;48.172;17.070;2024-03-08T05:15:01;7.30;92.20
14877;DHT22;69691;48.172;17.070;2024-03-08T05:17:27;7.30;92.20
14877;DHT22;69691;48.172;17.070;2024-03-08T05:19:53;7.30;92.20
14877;DHT22;69691;48.172;17.070;2024-03-08T05:22:19;7.30;92.20
14877;DHT22;69691;48.172;17.070;2024-03-08T05:24:45;7.30;92.20
14877;DHT22;69691;48.172;17.070;2024-03-08T05:27:11;7.30;92.20
14877;DHT22;69691;48.172;17.070;2024-03-08T05:29:38;7.40;92.30
14877;DHT22;69691;48.172;17.070;2024-03-08T05:32:04;7.40;92.30
14877;DHT22;69691;48.172;17.070;2024-03-08T05:34:30;7.50;92.30
14877;DHT22;69691;48.172;17.070;2024-03-08T05:36:56;7.50;92.20
14877;DHT22;69691;48.172;17.070;2024-03-08T05:39:23;7.50;92.50
14877;DHT22;69691;48.172;17.070;2024-03-08T05:41:49;7.50;92.10
14877;DHT22;69691;48.172;17.070;2024-03-08T05:44:16;7.50;92.10
14877;DHT22;69691;48.172;17.070;2024-03-08T05:46:45;7.40;92.10
14877;DHT22;69691;48.172;17.070;2024-03-08T05:49:12;7.40;92.10
14877;DHT22;69691;48.172;17.070;2024-03-08T05:51:39;7.40;92.20
14877;DHT22;69691;48.172;17.070;2024-03-08T05:54:07;7.40;92.30
14877;DHT22;69691;48.172;17.070;2024-03-08T05:56:38;7.50;92.20
14877;DHT22;69691;48.172;17.070;2024-03-08T05:59:09;7.50;92.10
14877;DHT22;69691;48.172;17.070;2024-03-08T06:01:35;7.50;92.10
14877;DHT22;69691;48.172;17.070;2024-03-08T06:04:02;7.50;92.00
14877;DHT22;69691;48.172;17.070;2024-03-08T06:06:29;7.50;92.00
14877;DHT22;69691;48.172;17.070;2024-03-08T06:08:55;7.50;92.30
14877;DHT22;69691;48.172;17.070;2024-03-08T06:11:24;7.50;92.10
14877;DHT22;69691;48.172;17.070;2024-03-08T06:13:53;7.60;92.10
14877;DHT22;69691;48.172;17.070;2024-03-08T06:16:26;7.60;92.20
14877;DHT22;69691;48.172;17.070;2024-03-08T06:18:58;7.70;92.20
14877;DHT22;69691;48.172;17.070;2024-03-08T06:21:27;7.70;92.10
14877;DHT22;69691;48.172;17.070;2024-03-08T06:23:54;7.80;92.10
14877;DHT22;69691;48.172;17.070;2024-03-08T06:26:25;7.90;92.10
14877;DHT22;69691;48.172;17.070;2024-03-08T06:28:54;7.90;92.00
14877;DHT22;69691;48.172;17.070;2024-03-08T06:31:20;7.90;92.00
14877;DHT22;69691;48.172;17.070;2024-03-08T06:33:46;7.90;92.00
14877;DHT22;69691;48.172;17.070;2024-03-08T06:36:16;7.90;92.20
14877;DHT22;69691;48.172;17.070;2024-03-08T06:38:45;8.00;92.10
14877;DHT22;69691;48.172;17.070;2024-03-08T06:41:11;8.10;92.10
14877;DHT22;69691;48.172;17.070;2024-03-08T06:43:45;8.20;91.90
14877;DHT22;69691;48.172;17.070;2024-03-08T06:46:15;8.30;91.70
14877;DHT22;69691;48.172;17.070;2024-03-08T06:48:41;8.50;91.60
14877;DHT22;69691;48.172;17.070;2024-03-08T06:51:07;8.50;91.50
14877;DHT22;69691;48.172;17.070;2024-03-08T06:53:33;8.60;91.30
14877;DHT22;69691;48.172;17.070;2024-03-08T06:56:01;8.60;91.20
14877;DHT22;69691;48.172;17.070;2024-03-08T06:58:27;8.70;91.10
14877;DHT22;69691;48.172;17.070;2024-03-08T07:00:54;8.80;91.30
14877;DHT22;69691;48.172;17.070;2024-03-08T07:03:24;8.80;90.90
14877;DHT22;69691;48.172;17.070;2024-03-08T07:05:50;8.80;90.70
14877;DHT22;69691;48.172;17.070;2024-03-08T07:08:15;8.80;90.60
14877;DHT22;69691;48.172;17.070;2024-03-08T07:10:42;8.80;90.70
14877;DHT22;69691;48.172;17.070;2024-03-08T07:13:10;8.80;90.80
14877;DHT22;69691;48.172;17.070;2024-03-08T07:15:36;8.70;90.50
14877;DHT22;69691;48.172;17.070;2024-03-08T07:18:02;8.50;90.50
14877;DHT22;69691;48.172;17.070;2024-03-08T07:20:29;8.40;90.80
14877;DHT22;69691;48.172;17.070;2024-03-08T07:22:55;8.30;91.10
14877;DHT22;69691;48.172;17.070;2024-03-08T07:25:20;8.30;91.00
14877;DHT22;69691;48.172;17.070;2024-03-08T07:27:54;8.20;91.10
14877;DHT22;69691;48.172;17.070;2024-03-08T07:30:25;8.20;91.40
14877;DHT22;69691;48.172;17.070;2024-03-08T07:33:10;8.30;91.30
14877;DHT22;69691;48.172;17.070;2024-03-08T07:35:38;8.30;91.30
14877;DHT22;69691;48.172;17.070;2024-03-08T07:38:05;8.40;91.30
14877;DHT22;69691;48.172;17.070;2024-03-08T07:40:34;8.40;91.20
14877;DHT22;69691;48.172;17.070;2024-03-08T07:43:01;8.50;91.20
14877;DHT22;69691;48.172;17.070;2024-03-08T07:45:27;8.50;91.10
14877;DHT22;69691;48.172;17.070;2024-03-08T07:47:53;8.60;91.00
14877;DHT22;69691;48.172;17.070;2024-03-08T07:50:19;8.60;91.00
14877;DHT22;69691;48.172;17.070;2024-03-08T07:52:45;8.60;91.10
14877;DHT22;69691;48.172;17.070;2024-03-08T07:55:11;8.60;91.10
14877;DHT22;69691;48.172;17.070;2024-03-08T07:57:37;8.50;90.90
14877;DHT22;69691;48.172;17.070;2024-03-08T08:00:06;8.40;91.20
14877;DHT22;69691;48.172;17.070;2024-03-08T08:02:34;8.30;91.40
14877;DHT22;69691;48.172;17.070;2024-03-08T08:05:01;8.40;91.80
14877;DHT22;69691;48.172;17.070;2024-03-08T08:07:27;8.40;91.80
14877;DHT22;69691;48.172;17.070;2024-03-08T08:09:53;8.50;92.20
14877;DHT22;69691;48.172;17.070;2024-03-08T08:12:19;8.50;91.90
14877;DHT22;69691;48.172;17.070;2024-03-08T08:14:46;8.60;91.80
14877;DHT22;69691;48.172;17.070;2024-03-08T08:17:12;8.50;92.20
14877;DHT22;69691;48.172;17.070;2024-03-08T08:19:40;8.50;91.90
14877;DHT22;69691;48.172;17.070;2024-03-08T08:22:06;8.40;91.90
14877;DHT22;69691;48.172;17.070;2024-03-08T08:24:34;8.30;92.20
14877;DHT22;69691;48.172;17.070;2024-03-08T08:27:03;8.40;92.40
14877;DHT22;69691;48.172;17.070;2024-03-08T08:29:29;8.60;92.40
14877;DHT22;69691;48.172;17.070;2024-03-08T08:31:58;8.60;92.20
14877;DHT22;69691;48.172;17.070;2024-03-08T08:34:25;8.70;92.20
14877;DHT22;69691;48.172;17.070;2024-03-08T08:36:52;8.80;92.20
14877;DHT22;69691;48.172;17.070;2024-03-08T08:39:18;8.80;92.00
14877;DHT22;69691;48.172;17.070;2024-03-08T08:41:44;8.80;91.80
14877;DHT22;69691;48.172;17.070;2024-03-08T08:44:10;8.70;91.70
14877;DHT22;69691;48.172;17.070;2024-03-08T08:46:38;8.60;91.80
14877;DHT22;69691;48.172;17.070;2024-03-08T08:49:04;8.70;92.00
14877;DHT22;69691;48.172;17.070;2024-03-08T08:51:31;8.80;91.90
14877;DHT22;69691;48.172;17.070;2024-03-08T08:53:59;8.90;91.80
14877;DHT22;69691;48.172;17.070;2024-03-08T08:56:25;9.10;91.80
14877;DHT22;69691;48.172;17.070;2024-03-08T08:58:52;9.10;91.50
14877;DHT22;69691;48.172;17.070;2024-03-08T09:01:20;9.20;91.40
14877;DHT22;69691;48.172;17.070;2024-03-08T09:03:46;9.20;91.30
14877;DHT22;69691;48.172;17.070;2024-03-08T09:06:12;9.20;91.20
14877;DHT22;69691;48.172;17.070;2024-03-08T09:08:42;9.20;91.20
14877;DHT22;69691;48.172;17.070;2024-03-08T09:11:10;9.10;91.20
14877;DHT22;69691;48.172;17.070;2024-03-08T09:13:36;9.00;91.30
14877;DHT22;69691;48.172;17.070;2024-03-08T09:16:04;8.80;91.30
14877;DHT22;69691;48.172;17.070;2024-03-08T09:18:32;8.80;91.60
14877;DHT22;69691;48.172;17.070;2024-03-08T09:20:58;8.80;91.60
14877;DHT22;69691;48.172;17.070;2024-03-08T09:23:25;8.80;91.70
14877;DHT22;69691;48.172;17.070;2024-03-08T09:25:58;8.90;91.60
14877;DHT22;69691;48.172;17.070;2024-03-08T09:28:24;8.90;91.70
14877;DHT22;69691;48.172;17.070;2024-03-08T09:30:52;8.90;91.60
14877;DHT22;69691;48.172;17.070;2024-03-08T09:33:18;9.00;91.50
14877;DHT22;69691;48.172;17.070;2024-03-08T09:35:46;9.00;91.50
14877;DHT22;69691;48.172;17.070;2024-03-08T09:38:12;9.00;91.60
14877;DHT22;69691;48.172;17.070;2024-03-08T09:40:41;9.00;91.50
14877;DHT22;69691;48.172;17.070;2024-03-08T09:43:07;9.10;91.40
14877;DHT22;69691;48.172;17.070;2024-03-08T09:45:36;9.20;91.30
14877;DHT22;69691;48.172;17.070;2024-03-08T09:48:05;9.20;91.30
14877;DHT22;69691;48.172;17.070;2024-03-08T09:50:34;9.10;91.20
14877;DHT22;69691;48.172;17.070;2024-03-08T09:53:00;9.00;91.20
14877;DHT22;69691;48.172;17.070;2024-03-08T09:55:26;9.00;91.30
14877;DHT22;69691;48.172;17.070;2024-03-08T09:57:58;9.00;91.40
14877;DHT22;69691;48.172;17.070;2024-03-08T10:00:44;9.00;91.60
14877;DHT22;69691;48.172;17.070;2024-03-08T10:03:09;9.20;91.70
14877;DHT22;69691;48.172;17.070;2024-03-08T10:05:36;9.20;91.20
14877;DHT22;69691;48.172;17.070;2024-03-08T10:08:02;9.30;91.20
14877;DHT22;69691;48.172;17.070;2024-03-08T10:10:30;9.40;91.20
14877;DHT22;69691;48.172;17.070;2024-03-08T10:12:56;9.40;91.20
14877;DHT22;69691;48.172;17.070;2024-03-08T10:15:22;9.60;91.00
14877;DHT22;69691;48.172;17.070;2024-03-08T10:17:49;9.80;90.90
14877;DHT22;69691;48.172;17.070;2024-03-08T10:20:16;10.00;90.30
14877;DHT22;69691;48.172;17.070;2024-03-08T10:22:43;10.10;90.10
14877;DHT22;69691;48.172;17.070;2024-03-08T10:25:12;10.20;89.80
14877;DHT22;69691;48.172;17.070;2024-03-08T10:27:39;10.40;89.30
14877;DHT22;69691;48.172;17.070;2024-03-08T10:30:14;10.60;88.70
14877;DHT22;69691;48.172;17.070;2024-03-08T10:32:41;10.80;88.20
14877;DHT22;69691;48.172;17.070;2024-03-08T10:35:08;11.10;87.50
14877;DHT22;69691;48.172;17.070;2024-03-08T10:37:47;11.40;86.50
14877;DHT22;69691;48.172;17.070;2024-03-08T10:40:19;11.50;85.50
14877;DHT22;69691;48.172;17.070;2024-03-08T10:42:55;11.50;84.90
14877;DHT22;69691;48.172;17.070;2024-03-08T10:48:32;11.40;84.00
14877;DHT22;69691;48.172;17.070;2024-03-08T10:51:06;11.20;83.70
14877;DHT22;69691;48.172;17.070;2024-03-08T10:53:34;11.00;84.10
14877;DHT22;69691;48.172;17.070;2024-03-08T10:56:00;11.00;83.90
14877;DHT22;69691;48.172;17.070;2024-03-08T10:58:27;11.10;84.70
14877;DHT22;69691;48.172;17.070;2024-03-08T11:00:56;11.20;83.40
14877;DHT22;69691;48.172;17.070;2024-03-08T11:03:44;11.30;82.70
14877;DHT22;69691;48.172;17.070;2024-03-08T11:08:49;11.70;80.70
14877;DHT22;69691;48.172;17.070;2024-03-08T11:11:31;11.80;79.90
14877;DHT22;69691;48.172;17.070;2024-03-08T11:14:00;11.90;79.30
14877;DHT22;69691;48.172;17.070;2024-03-08T11:19:01;12.00;77.20
14877;DHT22;69691;48.172;17.070;2024-03-08T11:21:32;11.90;76.90
14877;DHT22;69691;48.172;17.070;2024-03-08T11:24:12;11.80;77.10
14877;DHT22;69691;48.172;17.070;2024-03-08T11:26:39;11.70;77.50
14877;DHT22;69691;48.172;17.070;2024-03-08T11:34:37;11.40;77.50
14877;DHT22;69691;48.172;17.070;2024-03-08T11:37:13;11.40;78.50
14877;DHT22;69691;48.172;17.070;2024-03-08T11:39:47;11.50;78.30
14877;DHT22;69691;48.172;17.070;2024-03-08T11:42:17;11.70;77.60
14877;DHT22;69691;48.172;17.070;2024-03-08T11:44:47;11.80;76.70
14877;DHT22;69691;48.172;17.070;2024-03-08T11:47:15;11.90;76.20
14877;DHT22;69691;48.172;17.070;2024-03-08T11:49:42;12.10;75.40
14877;DHT22;69691;48.172;17.070;2024-03-08T11:52:13;12.20;74.70
14877;DHT22;69691;48.172;17.070;2024-03-08T11:54:47;12.30;73.50
14877;DHT22;69691;48.172;17.070;2024-03-08T11:57:18;12.20;73.10
14877;DHT22;69691;48.172;17.070;2024-03-08T11:59:54;12.10;73.70
14877;DHT22;69691;48.172;17.070;2024-03-08T12:02:22;12.20;73.00
14877;DHT22;69691;48.172;17.070;2024-03-08T12:04:59;12.20;72.70
14877;DHT22;69691;48.172;17.070;2024-03-08T12:07:26;12.40;72.10
14877;DHT22;69691;48.172;17.070;2024-03-08T12:12:51;12.90;70.20
14877;DHT22;69691;48.172;17.070;2024-03-08T12:15:19;13.00;69.60
14877;DHT22;69691;48.172;17.070;2024-03-08T12:17:54;12.90;69.30
14877;DHT22;69691;48.172;17.070;2024-03-08T12:20:23;12.90;69.30
14877;DHT22;69691;48.172;17.070;2024-03-08T12:22:53;12.70;69.80
14877;DHT22;69691;48.172;17.070;2024-03-08T12:25:22;12.50;68.70
14877;DHT22;69691;48.172;17.070;2024-03-08T12:27:48;12.40;68.50
14877;DHT22;69691;48.172;17.070;2024-03-08T12:33:06;12.50;68.80
14877;DHT22;69691;48.172;17.070;2024-03-08T12:35:36;12.70;67.50
14877;DHT22;69691;48.172;17.070;2024-03-08T12:38:02;12.60;67.00
14877;DHT22;69691;48.172;17.070;2024-03-08T12:40:30;12.50;66.90
14877;DHT22;69691;48.172;17.070;2024-03-08T12:42:58;12.30;67.10
14877;DHT22;69691;48.172;17.070;2024-03-08T12:45:24;12.20;67.40
14877;DHT22;69691;48.172;17.070;2024-03-08T12:47:54;12.10;67.40
14877;DHT22;69691;48.172;17.070;2024-03-08T12:50:21;12.10;67.80
14877;DHT22;69691;48.172;17.070;2024-03-08T12:52:48;12.00;67.70
14877;DHT22;69691;48.172;17.070;2024-03-08T12:55:15;12.00;67.90
14877;DHT22;69691;48.172;17.070;2024-03-08T12:57:42;12.00;67.80
14877;DHT22;69691;48.172;17.070;2024-03-08T13:00:08;12.10;67.80
14877;DHT22;69691;48.172;17.070;2024-03-08T13:02:47;12.20;67.80
14877;DHT22;69691;48.172;17.070;2024-03-08T13:05:13;12.30;67.50
14877;DHT22;69691;48.172;17.070;2024-03-08T13:07:43;12.40;67.10
14877;DHT22;69691;48.172;17.070;2024-03-08T13:10:15;12.20;67.00
14877;DHT22;69691;48.172;17.070;2024-03-08T13:12:42;12.20;67.30
14877;DHT22;69691;48.172;17.070;2024-03-08T13:15:09;12.00;66.90
14877;DHT22;69691;48.172;17.070;2024-03-08T13:17:46;11.80;67.20
14877;DHT22;69691;48.172;17.070;2024-03-08T13:20:13;11.80;67.60
14877;DHT22;69691;48.172;17.070;2024-03-08T13:22:45;11.60;67.80
14877;DHT22;69691;48.172;17.070;2024-03-08T13:25:12;11.60;68.10
14877;DHT22;69691;48.172;17.070;2024-03-08T13:27:41;11.60;68.20
14877;DHT22;69691;48.172;17.070;2024-03-08T13:30:12;11.50;68.20
14877;DHT22;69691;48.172;17.070;2024-03-08T13:32:42;11.40;68.50
14877;DHT22;69691;48.172;17.070;2024-03-08T13:35:12;11.40;68.60
14877;DHT22;69691;48.172;17.070;2024-03-08T13:37:42;11.50;68.50
14877;DHT22;69691;48.172;17.070;2024-03-08T13:40:09;11.60;68.30
14877;DHT22;69691;48.172;17.070;2024-03-08T13:42:42;11.60;68.60
14877;DHT22;69691;48.172;17.070;2024-03-08T13:45:09;11.70;68.50
14877;DHT22;69691;48.172;17.070;2024-03-08T13:47:39;11.70;68.50
14877;DHT22;69691;48.172;17.070;2024-03-08T13:50:08;11.60;68.50
14877;DHT22;69691;48.172;17.070;2024-03-08T13:52:39;11.60;68.80
14877;DHT22;69691;48.172;17.070;2024-03-08T13:55:06;11.40;69.10
14877;DHT22;69691;48.172;17.070;2024-03-08T13:57:32;11.30;69.30
14877;DHT22;69691;48.172;17.070;2024-03-08T13:59:59;11.10;69.80
14877;DHT22;69691;48.172;17.070;2024-03-08T14:02:25;11.00;70.60
14877;DHT22;69691;48.172;17.070;2024-03-08T14:04:56;11.00;70.60
14877;DHT22;69691;48.172;17.070;2024-03-08T14:07:23;11.20;70.70
14877;DHT22;69691;48.172;17.070;2024-03-08T14:09:51;11.30;70.10
14877;DHT22;69691;48.172;17.070;2024-03-08T14:12:19;11.40;69.90
14877;DHT22;69691;48.172;17.070;2024-03-08T14:14:45;11.50;69.50
14877;DHT22;69691;48.172;17.070;2024-03-08T14:17:11;11.60;69.00
14877;DHT22;69691;48.172;17.070;2024-03-08T14:19:42;11.60;68.40
14877;DHT22;69691;48.172;17.070;2024-03-08T14:22:08;11.40;67.90
14877;DHT22;69691;48.172;17.070;2024-03-08T14:24:38;11.40;68.30
14877;DHT22;69691;48.172;17.070;2024-03-08T14:27:05;11.50;68.40
14877;DHT22;69691;48.172;17.070;2024-03-08T14:29:34;11.60;67.80
14877;DHT22;69691;48.172;17.070;2024-03-08T14:32:00;11.80;67.50
14877;DHT22;69691;48.172;17.070;2024-03-08T14:34:26;11.80;67.10
14877;DHT22;69691;48.172;17.070;2024-03-08T14:36:55;11.80;67.00
14877;DHT22;69691;48.172;17.070;2024-03-08T14:39:21;11.80;66.40
14877;DHT22;69691;48.172;17.070;2024-03-08T14:41:57;11.70;66.30
14877;DHT22;69691;48.172;17.070;2024-03-08T14:44:23;11.60;66.40
14877;DHT22;69691;48.172;17.070;2024-03-08T14:46:53;11.50;66.40
14877;DHT22;69691;48.172;17.070;2024-03-08T14:49:18;11.40;66.60
14877;DHT22;69691;48.172;17.070;2024-03-08T14:51:45;11.40;66.50
14877;DHT22;69691;48.172;17.070;2024-03-08T14:54:10;11.40;66.40
14877;DHT22;69691;48.172;17.070;2024-03-08T14:56:37;11.40;66.30
14877;DHT22;69691;48.172;17.070;2024-03-08T14:59:03;11.50;66.30
14877;DHT22;69691;48.172;17.070;2024-03-08T15:01:30;11.40;66.10
14877;DHT22;69691;48.172;17.070;2024-03-08T15:03:58;11.40;66.20
14877;DHT22;69691;48.172;17.070;2024-03-08T15:06:37;11.30;66.10
14877;DHT22;69691;48.172;17.070;2024-03-08T15:09:04;11.30;66.10
14877;DHT22;69691;48.172;17.070;2024-03-08T15:11:38;11.30;66.30
14877;DHT22;69691;48.172;17.070;2024-03-08T15:14:05;11.20;66.50
14877;DHT22;69691;48.172;17.070;2024-03-08T15:16:40;11.20;66.50
14877;DHT22;69691;48.172;17.070;2024-03-08T15:19:07;11.00;66.40
14877;DHT22;69691;48.172;17.070;2024-03-08T15:21:33;10.90;66.70
14877;DHT22;69691;48.172;17.070;2024-03-08T15:24:00;10.90;66.80
14877;DHT22;69691;48.172;17.070;2024-03-08T15:26:28;10.80;67.60
14877;DHT22;69691;48.172;17.070;2024-03-08T15:28:57;10.60;67.20
14877;DHT22;69691;48.172;17.070;2024-03-08T15:31:23;10.50;67.70
14877;DHT22;69691;48.172;17.070;2024-03-08T15:33:52;10.40;67.90
14877;DHT22;69691;48.172;17.070;2024-03-08T15:36:27;10.50;68.10
14877;DHT22;69691;48.172;17.070;2024-03-08T15:38:57;10.60;68.00
14877;DHT22;69691;48.172;17.070;2024-03-08T15:41:23;10.60;67.90
14877;DHT22;69691;48.172;17.070;2024-03-08T15:43:51;10.50;67.70
14877;DHT22;69691;48.172;17.070;2024-03-08T15:46:17;10.40;68.10
14877;DHT22;69691;48.172;17.070;2024-03-08T15:48:47;10.40;68.50